createdAt,value
2023-06-03T00:04:25.284Z,81.04
2023-06-03T00:09:48.821Z,80.82
2023-06-03T00:15:12.614Z,80.69
2023-06-03T00:20:38.226Z,81.10
2023-06-03T00:26:00.710Z,81.55
2023-06-03T00:31:24.617Z,82.28
2023-06-03T00:36:47.715Z,82.70
2023-06-03T00:42:11.678Z,83.37
2023-06-03T00:47:37.955Z,84.03
2023-06-03T00:53:02.759Z,84.09
2023-06-03T00:58:25.582Z,84.36
2023-06-03T01:03:49.015Z,84.14
2023-06-03T01:09:33.096Z,83.78
2023-06-03T01:15:11.417Z,84.14
2023-06-03T01:20:36.029Z,84.26
2023-06-03T01:25:58.944Z,84.63
2023-06-03T01:31:25.578Z,84.67
2023-06-03T01:36:50.786Z,85.15
2023-06-03T01:42:17.041Z,85.67
2023-06-03T01:47:42.413Z,85.66
2023-06-03T01:53:07.092Z,85.60
2023-06-03T01:58:32.087Z,86.08
2023-06-03T02:03:54.457Z,86.55
2023-06-03T02:09:18.428Z,87.19
2023-06-03T02:14:43.928Z,87.50
2023-06-03T02:20:10.071Z,87.46
2023-06-03T02:25:34.875Z,87.26
2023-06-03T02:30:59.577Z,87.20
2023-06-03T02:36:25.226Z,86.96
2023-06-03T02:41:49.959Z,86.98
2023-06-03T02:47:14.770Z,87.13
2023-06-03T02:52:39.665Z,87.66
2023-06-03T02:58:03.791Z,88.42
2023-06-03T03:03:28.541Z,88.69
2023-06-03T03:08:55.679Z,88.70
2023-06-03T03:14:19.662Z,88.78
2023-06-03T03:19:43.165Z,89.45
2023-06-03T03:25:06.241Z,90.48
2023-06-03T03:30:30.326Z,90.71
2023-06-03T03:35:57.500Z,90.38
2023-06-03T03:41:24.067Z,89.76
2023-06-03T03:47:03.515Z,89.13
2023-06-03T03:52:31.605Z,88.38
2023-06-03T03:57:57.138Z,87.27
2023-06-03T04:03:21.911Z,86.22
2023-06-03T04:09:06.762Z,85.50
2023-06-03T04:14:36.478Z,84.85
2023-06-03T04:20:00.513Z,83.91
2023-06-03T04:25:27.345Z,83.15
2023-06-03T04:30:51.529Z,82.41
2023-06-03T04:36:15.547Z,81.38
2023-06-03T04:41:40.248Z,80.30
2023-06-03T04:47:05.984Z,79.52
2023-06-03T04:52:33.063Z,78.24
2023-06-03T04:57:58.313Z,76.98
2023-06-03T05:03:24.203Z,75.56
2023-06-03T05:08:49.375Z,74.05
2023-06-03T05:14:14.206Z,72.66
2023-06-03T05:19:39.233Z,71.50
2023-06-03T05:25:06.462Z,69.71
2023-06-03T05:30:30.096Z,68.33
2023-06-03T05:35:54.902Z,67.12
2023-06-03T05:41:18.700Z,66.48
2023-06-03T05:46:42.601Z,66.07
2023-06-03T05:52:07.387Z,65.62
2023-06-03T05:57:32.685Z,65.25
2023-06-03T06:02:55.182Z,64.44
2023-06-03T06:08:19.734Z,62.99
2023-06-03T06:13:43.911Z,62.01
2023-06-03T06:19:08.086Z,61.19
2023-06-03T06:24:34.776Z,59.69
2023-06-03T06:30:01.562Z,58.59
2023-06-03T06:35:26.159Z,56.45
2023-06-03T06:40:52.965Z,56.13
2023-06-03T06:46:16.330Z,53.94
2023-06-03T06:51:42.380Z,53.38
2023-06-03T06:57:07.469Z,52.72
2023-06-03T07:02:32.253Z,48.34
2023-06-03T07:07:56.883Z,48.14
2023-06-03T07:13:22.378Z,47.85
2023-06-03T07:18:47.850Z,46.76
2023-06-03T07:24:12.348Z,46.57
2023-06-03T07:29:37.581Z,45.04
2023-06-03T07:35:00.470Z,46.20
2023-06-03T07:40:28.234Z,46.06
2023-06-03T07:45:51.124Z,46.50
2023-06-03T07:51:13.544Z,46.51
2023-06-03T07:56:39.650Z,47.09
2023-06-03T08:02:04.222Z,47.74
2023-06-03T08:07:28.670Z,46.50
2023-06-03T08:12:54.227Z,45.70
2023-06-03T08:18:18.171Z,45.87
2023-06-03T08:23:40.615Z,44.88
2023-06-03T08:29:03.570Z,41.55
2023-06-03T08:34:26.572Z,41.24
2023-06-03T08:39:49.789Z,39.94
2023-06-03T08:45:18.470Z,39.19
2023-06-03T08:50:43.447Z,38.54
2023-06-03T08:56:07.982Z,39.21
2023-06-03T09:01:39.218Z,39.13
2023-06-03T09:07:04.859Z,38.83
2023-06-03T09:12:28.691Z,38.35
2023-06-03T09:17:52.757Z,38.74
2023-06-03T09:23:16.240Z,38.93
2023-06-03T09:28:38.610Z,37.93
2023-06-03T09:34:01.696Z,36.00
2023-06-03T09:39:26.055Z,36.22
2023-06-03T09:45:08.073Z,36.23
2023-06-03T09:50:31.282Z,34.85
2023-06-03T09:55:53.588Z,33.30
2023-06-03T10:01:16.051Z,33.13
2023-06-03T10:06:40.304Z,34.33
2023-06-03T10:12:08.645Z,31.93
2023-06-03T10:17:32.953Z,32.96
2023-06-03T10:22:57.780Z,31.13
2023-06-03T10:28:21.054Z,31.01
2023-06-03T10:33:47.081Z,29.99
2023-06-03T10:39:13.004Z,30.92
2023-06-03T10:44:35.863Z,29.74
2023-06-03T10:50:09.137Z,29.24
2023-06-03T10:55:54.269Z,30.17
2023-06-03T11:01:20.973Z,27.96
2023-06-03T11:06:47.090Z,28.90
2023-06-03T11:12:21.434Z,27.83
2023-06-03T11:17:45.089Z,27.57
2023-06-03T11:23:07.882Z,27.42
2023-06-03T11:28:41.813Z,28.66
2023-06-03T11:34:33.557Z,28.26
2023-06-03T11:40:22.246Z,26.80
2023-06-03T11:45:45.666Z,26.81
2023-06-03T11:51:10.060Z,27.09
2023-06-03T11:56:33.057Z,26.66
2023-06-03T12:02:09.771Z,25.58
2023-06-03T12:07:34.381Z,25.56
2023-06-03T12:13:11.227Z,26.11
2023-06-03T12:18:33.689Z,26.05
2023-06-03T12:23:58.038Z,26.19
2023-06-03T12:29:26.203Z,25.87
2023-06-03T12:34:56.104Z,25.06
2023-06-03T12:40:20.211Z,24.65
2023-06-03T12:45:43.930Z,25.75
2023-06-03T12:51:06.627Z,28.62
2023-06-03T12:56:30.917Z,25.70
2023-06-03T13:01:53.457Z,24.27
2023-06-03T13:07:15.889Z,26.03
2023-06-03T13:12:41.762Z,24.54
2023-06-03T13:18:04.442Z,24.39
2023-06-03T13:23:27.672Z,23.08
2023-06-03T13:28:50.130Z,23.51
2023-06-03T13:34:12.687Z,24.74
2023-06-03T13:39:35.433Z,24.61
2023-06-03T13:44:58.680Z,23.78
2023-06-03T13:50:22.400Z,23.52
2023-06-03T13:55:44.690Z,23.68
2023-06-03T14:01:07.375Z,22.35
2023-06-03T14:06:31.007Z,22.13
2023-06-03T14:11:53.662Z,22.66
2023-06-03T14:17:16.354Z,22.04
2023-06-03T14:22:39.501Z,22.54
2023-06-03T14:28:03.595Z,22.03
2023-06-03T14:33:27.842Z,21.62
2023-06-03T14:38:50.898Z,21.16
2023-06-03T14:44:14.943Z,21.58
2023-06-03T14:49:38.270Z,21.96
2023-06-03T14:55:01.993Z,21.60
2023-06-03T15:00:25.865Z,20.90
2023-06-03T15:05:48.471Z,22.75
2023-06-03T15:11:11.642Z,21.55
2023-06-03T15:16:34.509Z,21.03
2023-06-03T15:21:57.536Z,20.23
2023-06-03T15:27:20.767Z,21.76
2023-06-03T15:32:43.943Z,21.28
2023-06-03T15:38:06.734Z,20.21
2023-06-03T15:43:29.633Z,20.47
2023-06-03T15:48:52.531Z,20.20
2023-06-03T15:54:14.968Z,20.69
2023-06-03T15:59:37.578Z,19.64
2023-06-03T16:05:00.961Z,20.10
2023-06-03T16:10:23.637Z,20.26
2023-06-03T16:15:46.343Z,20.35
2023-06-03T16:21:09.742Z,21.52
2023-06-03T16:26:33.582Z,21.79
2023-06-03T16:31:56.463Z,22.39
2023-06-03T16:37:19.177Z,22.40
2023-06-03T16:42:41.969Z,21.94
2023-06-03T16:48:04.528Z,22.69
2023-06-03T16:53:26.980Z,21.74
2023-06-03T16:58:50.815Z,22.47
2023-06-03T17:04:13.627Z,21.77
2023-06-03T17:09:36.636Z,23.09
2023-06-03T17:14:59.725Z,22.32
2023-06-03T17:20:22.405Z,22.38
2023-06-03T17:25:45.680Z,22.67
2023-06-03T17:31:08.762Z,23.12
2023-06-03T17:36:32.339Z,23.82
2023-06-03T17:41:55.596Z,24.37
2023-06-03T17:47:18.202Z,24.42
2023-06-03T17:52:40.671Z,24.59
2023-06-03T17:58:04.472Z,25.43
2023-06-03T18:03:26.994Z,26.02
2023-06-03T18:08:49.438Z,25.86
2023-06-03T18:14:11.836Z,27.80
2023-06-03T18:19:35.293Z,30.17
2023-06-03T18:24:57.972Z,33.55
2023-06-03T18:30:21.745Z,33.75
2023-06-03T18:35:44.646Z,35.87
2023-06-03T18:41:07.694Z,37.52
2023-06-03T18:46:30.886Z,38.88
2023-06-03T18:51:55.257Z,40.04
2023-06-03T18:57:17.894Z,41.39
2023-06-03T19:02:40.459Z,42.20
2023-06-03T19:08:03.298Z,43.12
2023-06-03T19:13:26.204Z,44.09
2023-06-03T19:18:49.487Z,45.25
2023-06-03T19:24:12.866Z,45.75
2023-06-03T19:29:35.726Z,46.56
2023-06-03T19:34:59.790Z,47.37
2023-06-03T19:40:22.596Z,48.00
2023-06-03T19:45:45.271Z,48.60
2023-06-03T19:51:08.097Z,48.96
2023-06-03T19:56:30.699Z,48.80
2023-06-03T20:01:54.858Z,48.97
2023-06-03T20:07:17.377Z,49.20
2023-06-03T20:12:39.723Z,49.96
2023-06-03T20:18:02.908Z,50.30
2023-06-03T20:23:25.264Z,50.34
2023-06-03T20:28:48.933Z,50.57
2023-06-03T20:34:11.290Z,50.96
2023-06-03T20:45:06.252Z,50.96
2023-06-03T20:50:29.200Z,51.45
2023-06-03T20:55:52.839Z,51.67
2023-06-03T21:01:15.238Z,51.79
2023-06-03T21:06:38.074Z,51.65
2023-06-03T21:12:01.808Z,51.71
2023-06-03T21:17:25.305Z,52.12
2023-06-03T21:22:48.237Z,52.56
2023-06-03T21:28:10.684Z,53.18
2023-06-03T21:33:33.617Z,53.75
2023-06-03T21:38:56.086Z,54.46
2023-06-03T21:44:19.109Z,54.30
2023-06-03T21:49:42.188Z,54.88
2023-06-03T21:55:04.585Z,55.48
2023-06-03T22:00:27.198Z,56.05
2023-06-03T22:05:50.611Z,56.59
2023-06-03T22:11:12.893Z,57.06
2023-06-03T22:16:35.377Z,57.63
2023-06-03T22:21:58.215Z,58.39
2023-06-03T22:27:20.563Z,58.67
2023-06-03T22:32:42.953Z,59.18
2023-06-03T22:38:05.333Z,60.00
2023-06-03T22:43:28.194Z,60.49
2023-06-03T22:48:50.540Z,61.01
2023-06-03T22:54:12.872Z,61.30
2023-06-03T22:59:35.130Z,60.90
2023-06-03T23:04:57.502Z,60.94
2023-06-03T23:10:20.542Z,61.46
2023-06-03T23:15:44.344Z,61.86
2023-06-03T23:21:07.438Z,62.11
2023-06-03T23:26:30.140Z,62.12
2023-06-03T23:31:52.787Z,62.36
2023-06-03T23:37:15.360Z,62.25
2023-06-03T23:42:38.012Z,62.52
2023-06-03T23:48:01.239Z,62.37
2023-06-03T23:53:23.831Z,62.70
2023-06-03T23:58:46.211Z,63.14
